Terminal Aerodrome Forecast
Issued by NWS Albany, NY

Home | Current Version | Previous Version | Text Only | Print | Product List | Glossary On
Versions: 1 2 3 4 5 6 7 8 9 10 11 12 13 14 15 16 17 18 19 20
000
FTUS41 KALY 280032 AAA
TAFALB
TAF AMD
KALB 280032Z 2801/2824 17011G16KT P6SM VCSH BKN010 BKN210 BKN250
     FM280400 18007KT 5SM BR BKN080
     FM281000 18004KT 5SM BR SCT010 OVC035
     FM281400 21013KT P6SM SCT035 OVC080
     FM281800 26012G22KT P6SM VCSH OVC045=

USA.gov is the U.S. government's official web portal to all federal, state and local government web resources and services.